createdAt,value
2018-12-26T00:01:18.123Z,99902.36
2018-12-26T00:04:22.854Z,99914.59
2018-12-26T00:07:27.287Z,99921.59
2018-12-26T00:10:31.734Z,99919.19
2018-12-26T00:13:36.176Z,99909.72
2018-12-26T00:16:40.605Z,99912.84
2018-12-26T00:19:45.172Z,99922.64
2018-12-26T00:22:49.756Z,99911.75
2018-12-26T00:26:01.460Z,99916.63
2018-12-26T00:29:00.358Z,99920.69
2018-12-26T00:32:04.868Z,99912.13
2018-12-26T00:35:09.636Z,99916.23
2018-12-26T00:38:14.365Z,99910.33
2018-12-26T00:41:18.802Z,99899.17
2018-12-26T00:44:23.250Z,99897.88
2018-12-26T00:47:27.944Z,99887.73
2018-12-26T00:50:32.387Z,99885.77
2018-12-26T00:53:36.823Z,99887.08
2018-12-26T00:56:41.534Z,99891.28
2018-12-26T00:59:45.970Z,99886.09
2018-12-26T01:02:50.472Z,99893.67
2018-12-26T01:05:55.201Z,99885.40
2018-12-26T01:08:59.642Z,99884.28
2018-12-26T01:12:04.358Z,99880.55
2018-12-26T01:15:08.799Z,99883.20
2018-12-26T01:18:13.235Z,99879.96
2018-12-26T01:21:18.039Z,99879.59
2018-12-26T01:24:22.764Z,99884.18
2018-12-26T01:27:27.201Z,99883.67
2018-12-26T01:30:31.631Z,99878.59
2018-12-26T01:33:36.071Z,99875.11
2018-12-26T01:36:40.509Z,99869.55
2018-12-26T01:39:44.952Z,99866.79
2018-12-26T01:42:49.719Z,99858.69
2018-12-26T01:45:54.161Z,99857.21
2018-12-26T01:48:58.876Z,99868.77
2018-12-26T01:52:03.599Z,99850.66
2018-12-26T01:55:08.041Z,99855.11
2018-12-26T01:58:12.754Z,99855.59
2018-12-26T02:01:17.488Z,99842.58
2018-12-26T02:04:22.222Z,99845.22
2018-12-26T02:07:26.661Z,99838.14
2018-12-26T02:10:31.104Z,99831.72
2018-12-26T02:13:35.544Z,99830.73
2018-12-26T02:16:40.004Z,99832.38
2018-12-26T02:19:44.747Z,99847.05
2018-12-26T02:22:49.203Z,99848.05
2018-12-26T02:25:53.650Z,99839.62
2018-12-26T02:28:58.095Z,99837.15
2018-12-26T02:32:02.545Z,99828.10
2018-12-26T02:35:07.002Z,99823.81
2018-12-26T02:38:11.440Z,99830.25
2018-12-26T02:41:15.890Z,99829.91
2018-12-26T02:44:20.330Z,99827.77
2018-12-26T02:47:24.784Z,99831.05
2018-12-26T02:50:29.395Z,99826.27
2018-12-26T02:53:33.847Z,99821.00
2018-12-26T02:56:46.469Z,99822.83
2018-12-26T02:59:44.460Z,99818.53
2018-12-26T03:02:48.915Z,99802.23
2018-12-26T03:05:53.662Z,99808.99
2018-12-26T03:08:58.101Z,99811.30
2018-12-26T03:12:02.554Z,99818.55
2018-12-26T03:15:08.535Z,99815.08
2018-12-26T03:18:12.987Z,99823.45
2018-12-26T03:21:17.447Z,99807.00
2018-12-26T03:24:21.958Z,99807.14
2018-12-26T03:27:26.404Z,99809.47
2018-12-26T03:30:31.097Z,99803.06
2018-12-26T03:33:35.842Z,99793.51
2018-12-26T03:36:40.305Z,99789.88
2018-12-26T03:39:44.790Z,99804.01
2018-12-26T03:42:49.478Z,99797.25
2018-12-26T03:45:54.305Z,99786.08
2018-12-26T03:48:59.075Z,99785.40
2018-12-26T03:52:03.689Z,99788.53
2018-12-26T03:55:08.136Z,99775.88
2018-12-26T03:58:12.863Z,99779.16
2018-12-26T04:01:17.306Z,99790.86
2018-12-26T04:04:21.739Z,99800.09
2018-12-26T04:07:26.194Z,99791.67
2018-12-26T04:10:30.962Z,99788.04
2018-12-26T04:13:35.578Z,99780.97
2018-12-26T04:16:40.198Z,99773.36
2018-12-26T04:19:44.631Z,99782.58
2018-12-26T04:22:49.510Z,99787.20
2018-12-26T04:25:53.951Z,99773.97
2018-12-26T04:28:58.723Z,99777.34
2018-12-26T04:32:03.503Z,99782.98
2018-12-26T04:35:07.894Z,99784.77
2018-12-26T04:38:12.334Z,99787.45
2018-12-26T04:41:16.773Z,99794.87
2018-12-26T04:44:21.462Z,99790.09
2018-12-26T04:47:25.933Z,99785.62
2018-12-26T04:50:30.341Z,99785.56
2018-12-26T04:53:35.036Z,99790.59
2018-12-26T04:56:39.481Z,99789.79
2018-12-26T04:59:44.196Z,99795.38
2018-12-26T05:02:48.920Z,99798.27
2018-12-26T05:05:53.414Z,99790.50
2018-12-26T05:08:57.856Z,99789.27
2018-12-26T05:12:02.295Z,99790.09
2018-12-26T05:15:06.733Z,99789.48
2018-12-26T05:18:11.224Z,99791.89
2018-12-26T05:21:15.972Z,99799.45
2018-12-26T05:24:20.411Z,99802.41
2018-12-26T05:27:33.915Z,99801.13
2018-12-26T05:30:31.012Z,99819.95
2018-12-26T05:33:35.439Z,99819.41
2018-12-26T05:36:39.885Z,99825.21
2018-12-26T05:39:44.560Z,99811.65
2018-12-26T05:42:49.355Z,99811.21
2018-12-26T05:45:54.029Z,99824.81
2018-12-26T05:48:58.749Z,99818.45
2018-12-26T05:52:03.197Z,99829.23
2018-12-26T05:55:08.872Z,99824.55
2018-12-26T05:58:13.319Z,99824.69
2018-12-26T06:01:18.094Z,99822.73
2018-12-26T06:04:22.527Z,99830.05
2018-12-26T06:07:26.970Z,99829.24
2018-12-26T06:10:31.669Z,99826.33
2018-12-26T06:13:36.119Z,99831.89
2018-12-26T06:16:40.552Z,99833.89
2018-12-26T06:19:45.244Z,99840.00
2018-12-26T06:22:49.972Z,99844.25
2018-12-26T06:25:54.707Z,99845.93
2018-12-26T06:28:59.155Z,99846.39
2018-12-26T06:32:03.606Z,99853.98
2018-12-26T06:35:08.039Z,99847.64
2018-12-26T06:38:12.476Z,99857.94
2018-12-26T06:41:17.225Z,99849.53
2018-12-26T06:44:21.665Z,99851.52
2018-12-26T06:47:26.388Z,99854.84
2018-12-26T06:50:30.877Z,99857.14
2018-12-26T06:53:35.325Z,99851.23
2018-12-26T06:56:39.757Z,99850.88
2018-12-26T06:59:44.194Z,99857.13
2018-12-26T07:02:48.638Z,99861.78
2018-12-26T07:05:53.076Z,99855.36
2018-12-26T07:08:57.868Z,99855.02
2018-12-26T07:12:02.602Z,99854.71
2018-12-26T07:15:07.429Z,99848.59
2018-12-26T07:18:12.156Z,99844.01
2018-12-26T07:21:16.895Z,99842.50
2018-12-26T07:24:21.615Z,99853.22
2018-12-26T07:27:26.053Z,99862.80
2018-12-26T07:30:30.480Z,99860.19
2018-12-26T07:33:34.930Z,99855.22
2018-12-26T07:36:39.618Z,99867.11
2018-12-26T07:39:44.060Z,99870.27
2018-12-26T07:42:48.500Z,99870.45
2018-12-26T07:45:52.944Z,99873.88
2018-12-26T07:48:57.382Z,99882.44
2018-12-26T07:52:01.809Z,99872.35
2018-12-26T07:55:06.430Z,99873.27
2018-12-26T07:58:17.538Z,99874.75
2018-12-26T08:01:17.673Z,99875.96
2018-12-26T08:04:22.410Z,99876.50
2018-12-26T08:07:26.852Z,99876.66
2018-12-26T08:10:31.560Z,99875.49
2018-12-26T08:13:36.288Z,99866.06
2018-12-26T08:16:40.799Z,99868.37
2018-12-26T08:19:45.242Z,99869.33
2018-12-26T08:22:49.698Z,99858.93
2018-12-26T08:25:54.178Z,99862.71
2018-12-26T08:28:58.626Z,99862.86
2018-12-26T08:32:03.053Z,99868.28
2018-12-26T08:35:07.760Z,99868.88
2018-12-26T08:38:12.205Z,99866.11
2018-12-26T08:41:18.563Z,99876.03
2018-12-26T08:44:22.815Z,99878.67
2018-12-26T08:47:27.251Z,99874.23
2018-12-26T08:50:32.030Z,99881.97
2018-12-26T08:53:36.761Z,99885.09
2018-12-26T08:56:41.491Z,99883.60
2018-12-26T08:59:46.227Z,99886.52
2018-12-26T09:02:50.957Z,99899.06
2018-12-26T09:05:55.722Z,99896.28
2018-12-26T09:09:00.130Z,99904.02
2018-12-26T09:12:04.575Z,99897.08
2018-12-26T09:15:09.018Z,99899.84
2018-12-26T09:18:13.463Z,99893.80
2018-12-26T09:21:17.886Z,99893.04
2018-12-26T09:24:22.392Z,99886.06
2018-12-26T09:27:26.753Z,99883.41
2018-12-26T09:30:31.194Z,99884.23
2018-12-26T09:33:35.640Z,99875.65
2018-12-26T09:36:40.076Z,99881.94
2018-12-26T09:39:44.519Z,99883.90
2018-12-26T09:42:48.955Z,99879.48
2018-12-26T09:45:53.706Z,99880.94
2018-12-26T09:48:58.142Z,99885.54
2018-12-26T09:52:02.577Z,99876.16
2018-12-26T09:55:07.024Z,99881.80
2018-12-26T09:58:11.466Z,99883.42
2018-12-26T10:01:16.327Z,99881.41
2018-12-26T10:04:21.669Z,99885.83
2018-12-26T10:07:26.097Z,99887.40
2018-12-26T10:10:30.545Z,99891.34
2018-12-26T10:13:35.005Z,99893.36
2018-12-26T10:16:39.782Z,99901.37
2018-12-26T10:19:44.507Z,99900.38
2018-12-26T10:22:48.947Z,99898.94
2018-12-26T10:25:53.383Z,99894.78
2018-12-26T10:29:01.047Z,99885.52
2018-12-26T10:32:04.252Z,99888.42
2018-12-26T10:35:08.929Z,99887.66
2018-12-26T10:38:13.380Z,99880.34
2018-12-26T10:41:17.813Z,99886.02
2018-12-26T10:44:22.255Z,99883.02
2018-12-26T10:47:26.984Z,99884.06
2018-12-26T10:50:33.130Z,99875.45
2018-12-26T10:53:37.986Z,99877.63
2018-12-26T10:56:42.418Z,99868.23
2018-12-26T10:59:46.858Z,99861.23
2018-12-26T11:02:51.564Z,99856.66
2018-12-26T11:05:56.005Z,99849.89
2018-12-26T11:09:00.714Z,99850.28
2018-12-26T11:12:05.149Z,99845.69
2018-12-26T11:15:10.165Z,99845.92
2018-12-26T11:18:14.610Z,99846.83
2018-12-26T11:21:19.333Z,99835.98
2018-12-26T11:24:24.060Z,99838.23
2018-12-26T11:27:28.495Z,99825.17
2018-12-26T11:30:33.213Z,99824.55
2018-12-26T11:33:37.666Z,99824.11
2018-12-26T11:36:42.094Z,99814.09
2018-12-26T11:39:46.905Z,99807.88
2018-12-26T11:42:51.331Z,99796.53
2018-12-26T11:45:55.773Z,99801.55
2018-12-26T11:49:00.207Z,99795.78
2018-12-26T11:52:04.633Z,99797.70
2018-12-26T11:55:09.318Z,99793.92
2018-12-26T11:58:14.060Z,99791.15
2018-12-26T12:01:18.516Z,99785.83
2018-12-26T12:04:23.206Z,99781.33
2018-12-26T12:07:27.634Z,99784.30
2018-12-26T12:10:32.360Z,99773.32
2018-12-26T12:13:36.798Z,99763.63
2018-12-26T12:16:41.258Z,99770.80
2018-12-26T12:19:46.144Z,99758.61
2018-12-26T12:22:50.978Z,99757.63
2018-12-26T12:25:55.425Z,99757.09
2018-12-26T12:28:59.862Z,99750.81
2018-12-26T12:32:04.294Z,99751.72
2018-12-26T12:35:08.805Z,99760.88
2018-12-26T12:38:13.242Z,99765.61
2018-12-26T12:41:17.681Z,99772.81
2018-12-26T12:44:22.136Z,99766.35
2018-12-26T12:47:26.633Z,99756.56
2018-12-26T12:50:31.249Z,99756.60
2018-12-26T12:53:35.681Z,99748.27
2018-12-26T12:56:40.119Z,99752.47
2018-12-26T12:59:45.170Z,99752.33
2018-12-26T13:02:49.741Z,99752.83
2018-12-26T13:05:54.169Z,99734.98
2018-12-26T13:08:58.595Z,99723.91
2018-12-26T13:12:03.030Z,99729.97
2018-12-26T13:15:07.725Z,99717.33
2018-12-26T13:18:12.451Z,99710.91
2018-12-26T13:21:17.382Z,99725.91
2018-12-26T13:24:22.109Z,99714.70
2018-12-26T13:27:26.772Z,99711.95
2018-12-26T13:30:31.209Z,99716.03
2018-12-26T13:33:36.002Z,99714.45
2018-12-26T13:36:40.442Z,99719.81
2018-12-26T13:39:44.882Z,99723.67
2018-12-26T13:42:49.315Z,99718.91
2018-12-26T13:45:53.763Z,99722.28
2018-12-26T13:48:58.248Z,99727.36
2018-12-26T13:52:02.687Z,99721.08
2018-12-26T13:55:07.582Z,99724.25
2018-12-26T13:58:12.027Z,99729.63
2018-12-26T14:01:16.468Z,99726.07
2018-12-26T14:04:20.968Z,99726.22
2018-12-26T14:07:25.417Z,99727.52
2018-12-26T14:10:29.855Z,99735.48
2018-12-26T14:13:34.284Z,99741.42
2018-12-26T14:16:39.055Z,99750.26
2018-12-26T14:19:43.781Z,99743.02
2018-12-26T14:22:48.217Z,99739.96
2018-12-26T14:25:52.671Z,99733.59
2018-12-26T14:28:57.357Z,99733.57
2018-12-26T14:32:02.093Z,99733.38
2018-12-26T14:35:07.139Z,99731.88
2018-12-26T14:38:11.567Z,99735.66
2018-12-26T14:41:16.280Z,99733.21
2018-12-26T14:44:21.015Z,99748.16
2018-12-26T14:47:25.744Z,99746.97
2018-12-26T14:50:30.576Z,99750.52
2018-12-26T14:53:35.305Z,99752.56
2018-12-26T14:56:39.754Z,99755.34
2018-12-26T14:59:44.252Z,99750.68
2018-12-26T15:02:48.728Z,99760.32
2018-12-26T15:05:53.512Z,99762.16
2018-12-26T15:08:57.943Z,99759.47
2018-12-26T15:12:02.684Z,99762.59
2018-12-26T15:15:07.809Z,99771.38
2018-12-26T15:18:12.246Z,99767.64
2018-12-26T15:21:16.692Z,99779.99
2018-12-26T15:24:21.187Z,99771.67
2018-12-26T15:27:25.908Z,99767.40
2018-12-26T15:30:30.425Z,99768.45
2018-12-26T15:33:34.914Z,99762.84
2018-12-26T15:36:42.092Z,99767.48
2018-12-26T15:39:47.455Z,99775.59
2018-12-26T15:42:53.308Z,99765.34
2018-12-26T15:45:58.111Z,99764.02
2018-12-26T15:49:02.939Z,99756.52
2018-12-26T15:52:07.427Z,99750.53
2018-12-26T15:55:11.864Z,99757.19
2018-12-26T15:58:16.304Z,99753.45
2018-12-26T16:01:20.739Z,99754.41
2018-12-26T16:04:25.257Z,99751.59
2018-12-26T16:07:29.712Z,99746.17
2018-12-26T16:10:34.391Z,99753.19
2018-12-26T16:13:39.127Z,99750.87
2018-12-26T16:16:43.855Z,99753.87
2018-12-26T16:19:48.280Z,99749.32
2018-12-26T16:22:52.796Z,99752.16
2018-12-26T16:25:57.254Z,99752.70
2018-12-26T16:29:01.756Z,99748.30
2018-12-26T16:32:06.198Z,99753.30
2018-12-26T16:35:11.242Z,99753.78
2018-12-26T16:38:15.675Z,99759.92
2018-12-26T16:41:20.116Z,99751.53
2018-12-26T16:44:24.554Z,99751.95
2018-12-26T16:47:29.000Z,99751.73
2018-12-26T16:50:33.741Z,99751.06
2018-12-26T16:53:38.186Z,99751.38
2018-12-26T16:56:42.651Z,99754.86
2018-12-26T16:59:47.448Z,99752.88
2018-12-26T17:02:51.888Z,99750.44
2018-12-26T17:05:56.321Z,99752.24
2018-12-26T17:09:00.761Z,99745.86
2018-12-26T17:12:05.598Z,99746.69
2018-12-26T17:15:10.106Z,99744.41
2018-12-26T17:18:14.917Z,99741.23
2018-12-26T17:21:19.336Z,99733.70
2018-12-26T17:24:24.037Z,99732.64
2018-12-26T17:27:28.783Z,99732.42
2018-12-26T17:30:33.515Z,99738.89
2018-12-26T17:33:37.999Z,99735.93
2018-12-26T17:36:42.542Z,99740.67
2018-12-26T17:39:47.302Z,99737.92
2018-12-26T17:42:52.071Z,99736.22
2018-12-26T17:45:56.759Z,99740.02
2018-12-26T17:49:01.306Z,99745.64
2018-12-26T17:52:06.139Z,99742.82
2018-12-26T17:55:21.596Z,99734.51
2018-12-26T17:58:30.746Z,99729.25
2018-12-26T18:01:54.520Z,99731.38
2018-12-26T18:04:59.225Z,99732.34
2018-12-26T18:08:03.749Z,99732.39
2018-12-26T18:11:08.219Z,99728.03
2018-12-26T18:14:13.024Z,99729.13
2018-12-26T18:17:18.033Z,99728.01
2018-12-26T18:20:22.466Z,99737.29
2018-12-26T18:23:26.980Z,99736.89
2018-12-26T18:26:32.868Z,99736.13
2018-12-26T18:29:37.708Z,99738.84
2018-12-26T18:32:42.199Z,99733.78
2018-12-26T18:35:46.949Z,99736.49
2018-12-26T18:38:51.424Z,99728.25
2018-12-26T18:41:56.215Z,99733.19
2018-12-26T18:45:01.034Z,99734.92
2018-12-26T18:48:05.612Z,99727.20
2018-12-26T18:51:10.495Z,99720.67
2018-12-26T18:54:14.972Z,99724.28
2018-12-26T18:57:19.414Z,99723.45
2018-12-26T19:00:24.406Z,99722.60
2018-12-26T19:03:28.873Z,99727.37
2018-12-26T19:06:33.550Z,99714.41
2018-12-26T19:09:38.041Z,99714.91
2018-12-26T19:12:42.599Z,99710.67
2018-12-26T19:15:47.346Z,99712.70
2018-12-26T19:18:51.781Z,99718.84
2018-12-26T19:21:56.991Z,99717.86
2018-12-26T19:25:01.439Z,99718.31
2018-12-26T19:28:06.491Z,99711.75
2018-12-26T19:31:10.953Z,99708.86
2018-12-26T19:34:15.436Z,99712.81
2018-12-26T19:37:21.049Z,99702.78
2018-12-26T19:40:25.661Z,99703.25
2018-12-26T19:43:30.637Z,99702.27
2018-12-26T19:46:35.137Z,99695.69
2018-12-26T19:49:39.880Z,99689.73
2018-12-26T19:52:44.329Z,99685.85
2018-12-26T19:55:48.914Z,99679.70
2018-12-26T19:58:53.428Z,99677.86
2018-12-26T20:01:57.861Z,99669.05
2018-12-26T20:05:02.309Z,99664.26
2018-12-26T20:08:07.036Z,99670.23
2018-12-26T20:11:11.475Z,99662.94
2018-12-26T20:14:15.907Z,99658.53
2018-12-26T20:17:20.383Z,99661.72
2018-12-26T20:20:24.795Z,99664.08
2018-12-26T20:23:29.559Z,99659.50
2018-12-26T20:26:34.004Z,99662.89
2018-12-26T20:29:39.518Z,99652.45
2018-12-26T20:32:43.886Z,99653.20
2018-12-26T20:35:48.326Z,99652.70
2018-12-26T20:38:52.758Z,99657.73
2018-12-26T20:41:57.209Z,99654.24
2018-12-26T20:45:01.949Z,99649.84
2018-12-26T20:48:06.373Z,99648.75
2018-12-26T20:51:10.817Z,99648.44
2018-12-26T20:54:15.748Z,99646.98
2018-12-26T20:57:20.183Z,99649.44
2018-12-26T21:00:24.622Z,99648.09
2018-12-26T21:03:29.424Z,99643.63
2018-12-26T21:06:33.866Z,99644.50
2018-12-26T21:09:38.614Z,99643.21
2018-12-26T21:12:43.328Z,99640.64
2018-12-26T21:15:47.794Z,99638.80
2018-12-26T21:18:52.208Z,99638.97
2018-12-26T21:21:56.662Z,99635.97
2018-12-26T21:25:01.092Z,99639.84
2018-12-26T21:28:05.535Z,99629.80
2018-12-26T21:31:09.982Z,99628.19
2018-12-26T21:34:14.916Z,99624.51
2018-12-26T21:37:19.363Z,99626.44
2018-12-26T21:40:24.146Z,99621.93
2018-12-26T21:43:28.874Z,99618.41
2018-12-26T21:46:33.606Z,99624.00
2018-12-26T21:49:38.039Z,99619.83
2018-12-26T21:52:42.476Z,99619.91
2018-12-26T21:55:46.925Z,99614.34
2018-12-26T21:58:51.355Z,99605.27
2018-12-26T22:01:56.132Z,99603.00
2018-12-26T22:05:00.575Z,99604.09
2018-12-26T22:08:05.016Z,99604.47
2018-12-26T22:11:09.481Z,99604.30
2018-12-26T22:14:13.958Z,99595.35
2018-12-26T22:17:18.405Z,99595.61
2018-12-26T22:20:23.180Z,99594.98
2018-12-26T22:23:28.014Z,99600.93
2018-12-26T22:26:32.745Z,99601.64
2018-12-26T22:29:37.477Z,99608.05
2018-12-26T22:32:42.209Z,99612.02
2018-12-26T22:35:47.071Z,99610.63
2018-12-26T22:38:51.580Z,99609.61
2018-12-26T22:41:56.031Z,99610.50
2018-12-26T22:45:00.534Z,99613.33
2018-12-26T22:48:05.353Z,99614.46
2018-12-26T22:51:10.190Z,99613.13
2018-12-26T22:54:14.954Z,99611.36
2018-12-26T22:57:19.446Z,99613.86
2018-12-26T23:00:25.977Z,99608.42
2018-12-26T23:03:30.443Z,99609.92
2018-12-26T23:06:34.957Z,99607.30
2018-12-26T23:09:39.624Z,99594.94
2018-12-26T23:12:44.077Z,99592.77
2018-12-26T23:15:48.847Z,99599.00
2018-12-26T23:18:53.580Z,99591.52
2018-12-26T23:21:58.512Z,99592.41
2018-12-26T23:25:02.962Z,99586.52
2018-12-26T23:28:07.679Z,99592.62
2018-12-26T23:31:12.601Z,99586.52
2018-12-26T23:34:17.073Z,99578.81
2018-12-26T23:37:21.504Z,99574.25
2018-12-26T23:40:26.083Z,99571.28
2018-12-26T23:43:30.469Z,99565.36
2018-12-26T23:46:35.230Z,99559.95
2018-12-26T23:49:39.738Z,99557.63
2018-12-26T23:52:44.177Z,99556.30
2018-12-26T23:55:48.622Z,99551.34
2018-12-26T23:58:53.083Z,99551.83
